createdAt,value
2022-08-26T00:02:01.485Z,76.32
2022-08-26T00:04:29.156Z,76.46
2022-08-26T00:06:57.115Z,76.64
2022-08-26T00:09:25.988Z,76.49
2022-08-26T00:11:54.746Z,77.39
2022-08-26T00:14:29.951Z,77.54
2022-08-26T00:16:58.903Z,77.34
2022-08-26T00:19:26.854Z,77.71
2022-08-26T00:21:54.215Z,78.09
2022-08-26T00:24:23.443Z,77.78
2022-08-26T00:26:51.564Z,77.76
2022-08-26T00:29:21.279Z,78.08
2022-08-26T00:31:49.295Z,77.81
2022-08-26T00:34:16.823Z,77.48
2022-08-26T00:36:47.904Z,77.75
2022-08-26T00:39:20.097Z,77.82
2022-08-26T00:41:50.043Z,78.36
2022-08-26T00:44:18.214Z,77.93
2022-08-26T00:46:55.375Z,78.03
2022-08-26T00:49:40.396Z,78.08
2022-08-26T00:52:15.364Z,78.26
2022-08-26T00:55:01.072Z,78.13
2022-08-26T00:57:32.917Z,78.10
2022-08-26T01:00:06.708Z,78.21
2022-08-26T01:02:34.077Z,78.14
2022-08-26T01:05:06.676Z,78.57
2022-08-26T01:07:35.559Z,78.03
2022-08-26T01:10:10.292Z,78.34
2022-08-26T01:12:45.432Z,77.88
2022-08-26T01:15:22.749Z,78.13
2022-08-26T01:17:50.518Z,77.72
2022-08-26T01:20:58.804Z,77.56
2022-08-26T01:23:38.226Z,77.32
2022-08-26T01:26:19.433Z,77.32
2022-08-26T01:28:51.967Z,77.22
2022-08-26T01:31:25.290Z,77.30
2022-08-26T01:34:11.020Z,77.33
2022-08-26T01:36:40.073Z,77.19
2022-08-26T01:39:08.701Z,77.07
2022-08-26T01:41:37.212Z,76.86
2022-08-26T01:44:09.802Z,77.15
2022-08-26T01:46:37.345Z,77.52
2022-08-26T01:49:08.508Z,77.05
2022-08-26T01:51:38.685Z,76.83
2022-08-26T01:54:11.920Z,77.13
2022-08-26T01:56:41.746Z,76.58
2022-08-26T01:59:14.805Z,76.77
2022-08-26T02:01:42.975Z,76.61
2022-08-26T02:04:27.275Z,76.58
2022-08-26T02:06:57.879Z,76.33
2022-08-26T02:09:26.498Z,76.50
2022-08-26T02:11:55.582Z,76.51
2022-08-26T02:14:43.719Z,76.23
2022-08-26T02:17:12.291Z,76.56
2022-08-26T02:19:45.164Z,76.53
2022-08-26T02:22:19.442Z,76.72
2022-08-26T02:24:57.313Z,76.63
2022-08-26T02:27:32.492Z,76.60
2022-08-26T02:30:29.087Z,76.68
2022-08-26T02:33:00.015Z,76.58
2022-08-26T02:35:27.057Z,76.75
2022-08-26T02:37:54.552Z,76.58
2022-08-26T02:40:30.362Z,76.77
2022-08-26T02:42:57.951Z,76.76
2022-08-26T02:45:28.009Z,76.91
2022-08-26T02:47:58.509Z,76.91
2022-08-26T02:50:27.483Z,76.95
2022-08-26T02:52:55.747Z,77.22
2022-08-26T02:55:24.720Z,77.03
2022-08-26T02:57:52.402Z,77.42
2022-08-26T03:00:19.742Z,77.25
2022-08-26T03:02:46.722Z,77.66
2022-08-26T03:05:13.876Z,77.63
2022-08-26T03:07:43.463Z,78.09
2022-08-26T03:10:13.173Z,78.25
2022-08-26T03:12:47.526Z,78.54
2022-08-26T03:15:18.408Z,78.78
2022-08-26T03:17:50.343Z,78.79
2022-08-26T03:20:18.641Z,78.87
2022-08-26T03:22:46.171Z,79.00
2022-08-26T03:25:16.084Z,78.90
2022-08-26T03:27:43.789Z,79.15
2022-08-26T03:30:31.838Z,79.14
2022-08-26T03:33:00.919Z,79.08
2022-08-26T03:35:28.343Z,78.99
2022-08-26T03:37:55.464Z,78.86
2022-08-26T03:40:23.293Z,78.89
2022-08-26T03:42:53.166Z,79.27
2022-08-26T03:45:21.805Z,79.18
2022-08-26T03:47:49.525Z,79.14
2022-08-26T03:50:22.977Z,79.07
2022-08-26T03:52:55.969Z,79.34
2022-08-26T03:55:31.937Z,79.58
2022-08-26T03:58:00.686Z,79.64
2022-08-26T04:00:28.848Z,79.65
2022-08-26T04:02:56.229Z,79.33
2022-08-26T04:05:29.305Z,79.47
2022-08-26T04:07:56.518Z,79.51
2022-08-26T04:10:26.425Z,79.52
2022-08-26T04:13:00.562Z,79.43
2022-08-26T04:15:28.350Z,79.55
2022-08-26T04:17:57.371Z,79.34
2022-08-26T04:20:26.151Z,79.49
2022-08-26T04:22:53.790Z,79.47
2022-08-26T04:25:21.259Z,79.41
2022-08-26T04:27:48.539Z,79.35
2022-08-26T04:30:16.728Z,79.22
2022-08-26T04:32:45.887Z,79.25
2022-08-26T04:35:13.002Z,79.09
2022-08-26T04:37:43.102Z,78.95
2022-08-26T04:40:10.904Z,78.95
2022-08-26T04:42:38.251Z,79.12
2022-08-26T04:45:09.962Z,78.66
2022-08-26T04:47:37.261Z,78.74
2022-08-26T04:50:06.954Z,78.89
2022-08-26T04:52:36.566Z,78.85
2022-08-26T04:55:06.595Z,78.75
2022-08-26T04:57:36.311Z,78.59
2022-08-26T05:00:07.914Z,78.30
2022-08-26T05:02:36.163Z,78.33
2022-08-26T05:05:07.120Z,78.29
2022-08-26T05:07:35.332Z,78.41
2022-08-26T05:10:04.149Z,77.95
2022-08-26T05:12:35.757Z,78.23
2022-08-26T05:15:06.301Z,78.16
2022-08-26T05:17:34.412Z,77.83
2022-08-26T05:20:01.614Z,77.41
2022-08-26T05:22:28.737Z,77.67
2022-08-26T05:24:55.780Z,77.46
2022-08-26T05:27:23.353Z,77.50
2022-08-26T05:29:54.515Z,77.42
2022-08-26T05:32:21.712Z,77.20
2022-08-26T05:34:55.350Z,77.44
2022-08-26T05:37:23.080Z,77.39
2022-08-26T05:39:51.177Z,77.26
2022-08-26T05:42:20.019Z,77.38
2022-08-26T05:44:55.504Z,77.35
2022-08-26T05:47:24.625Z,77.11
2022-08-26T05:49:52.424Z,77.05
2022-08-26T05:52:20.206Z,77.03
2022-08-26T05:54:47.702Z,77.07
2022-08-26T05:57:16.165Z,77.29
2022-08-26T05:59:45.649Z,77.06
2022-08-26T06:02:13.125Z,76.81
2022-08-26T06:04:40.728Z,76.77
2022-08-26T06:07:09.950Z,76.72
2022-08-26T06:09:39.212Z,76.56
2022-08-26T06:12:13.068Z,76.43
2022-08-26T06:14:43.230Z,76.60
2022-08-26T06:17:11.532Z,76.21
2022-08-26T06:19:41.350Z,76.20
2022-08-26T06:22:28.401Z,76.08
2022-08-26T06:25:14.032Z,75.83
2022-08-26T06:27:41.056Z,75.40
2022-08-26T06:30:09.895Z,75.32
2022-08-26T06:32:36.917Z,75.38
2022-08-26T06:35:06.238Z,75.61
2022-08-26T06:37:39.537Z,75.06
2022-08-26T06:40:09.407Z,75.06
2022-08-26T06:42:39.101Z,75.02
2022-08-26T06:45:08.073Z,74.80
2022-08-26T06:47:36.296Z,74.59
2022-08-26T06:50:03.993Z,74.18
2022-08-26T06:52:31.004Z,74.03
2022-08-26T06:54:58.231Z,74.40
2022-08-26T06:57:25.428Z,74.44
2022-08-26T06:59:52.605Z,74.47
2022-08-26T07:02:20.827Z,73.67
2022-08-26T07:04:48.109Z,73.10
2022-08-26T07:07:18.176Z,73.88
2022-08-26T07:09:49.114Z,73.73
2022-08-26T07:12:19.924Z,72.91
2022-08-26T07:14:48.167Z,72.68
2022-08-26T07:17:16.353Z,72.53
2022-08-26T07:19:43.510Z,72.42
2022-08-26T07:22:10.909Z,72.17
2022-08-26T07:24:43.416Z,71.88
2022-08-26T07:27:15.538Z,71.61
2022-08-26T07:29:43.632Z,71.73
2022-08-26T07:32:14.206Z,71.19
2022-08-26T07:34:42.243Z,70.79
2022-08-26T07:37:10.472Z,69.96
2022-08-26T07:39:40.432Z,69.87
2022-08-26T07:42:09.533Z,69.50
2022-08-26T07:44:40.489Z,70.16
2022-08-26T07:47:10.088Z,69.96
2022-08-26T07:49:38.425Z,69.39
2022-08-26T07:52:06.454Z,69.30
2022-08-26T07:54:33.535Z,69.44
2022-08-26T07:57:01.549Z,69.11
2022-08-26T07:59:35.473Z,68.79
2022-08-26T08:02:02.509Z,68.75
2022-08-26T08:04:30.429Z,68.17
2022-08-26T08:06:58.158Z,67.76
2022-08-26T08:09:26.081Z,67.33
2022-08-26T08:11:54.669Z,67.42
2022-08-26T08:14:22.353Z,66.72
2022-08-26T08:16:51.245Z,67.28
2022-08-26T08:19:22.496Z,67.11
2022-08-26T08:21:51.033Z,65.80
2022-08-26T08:24:18.591Z,65.58
2022-08-26T08:26:46.040Z,65.93
2022-08-26T08:29:13.434Z,65.42
2022-08-26T08:31:57.976Z,64.59
2022-08-26T08:34:28.874Z,65.39
2022-08-26T08:36:57.158Z,65.79
2022-08-26T08:39:26.303Z,65.95
2022-08-26T08:42:10.843Z,66.26
2022-08-26T08:44:43.655Z,66.38
2022-08-26T08:47:33.835Z,67.15
2022-08-26T08:50:24.021Z,66.76
2022-08-26T08:53:16.487Z,66.54
2022-08-26T08:55:49.615Z,67.34
2022-08-26T08:58:25.041Z,67.65
2022-08-26T09:01:04.890Z,67.65
2022-08-26T09:04:17.966Z,67.02
2022-08-26T09:06:54.880Z,66.60
2022-08-26T09:09:45.437Z,67.05
2022-08-26T09:12:29.832Z,67.31
2022-08-26T09:15:07.527Z,66.96
2022-08-26T09:18:05.606Z,65.98
2022-08-26T09:20:57.383Z,65.34
2022-08-26T09:23:26.988Z,65.49
2022-08-26T09:26:03.764Z,65.13
2022-08-26T09:28:32.953Z,64.57
2022-08-26T09:31:19.153Z,63.77
2022-08-26T09:33:47.477Z,64.10
2022-08-26T09:36:39.350Z,63.46
2022-08-26T09:39:27.418Z,62.78
2022-08-26T09:42:08.077Z,62.79
2022-08-26T09:44:57.262Z,62.70
2022-08-26T09:47:53.212Z,62.60
2022-08-26T09:50:29.148Z,62.82
2022-08-26T09:53:12.967Z,62.80
2022-08-26T09:55:45.068Z,63.11
2022-08-26T09:58:16.864Z,63.02
2022-08-26T10:00:58.761Z,62.40
2022-08-26T10:03:33.063Z,62.56
2022-08-26T10:06:21.138Z,64.04
2022-08-26T10:09:14.079Z,65.52
2022-08-26T10:11:56.057Z,67.82
2022-08-26T10:14:48.158Z,69.34
2022-08-26T10:17:34.211Z,71.18
2022-08-26T10:20:25.741Z,71.99
2022-08-26T10:23:14.890Z,72.49
2022-08-26T10:25:59.945Z,73.61
2022-08-26T10:29:01.451Z,74.28
2022-08-26T10:31:40.490Z,72.85
2022-08-26T10:34:12.524Z,72.66
2022-08-26T10:37:14.271Z,73.00
2022-08-26T10:40:07.596Z,73.11
2022-08-26T10:42:41.933Z,73.04
2022-08-26T10:45:15.330Z,73.20
2022-08-26T10:48:05.438Z,73.48
2022-08-26T10:50:41.616Z,73.60
2022-08-26T10:53:24.946Z,72.53
2022-08-26T10:56:22.559Z,72.56
2022-08-26T10:58:53.573Z,72.07
2022-08-26T11:01:43.780Z,72.41
2022-08-26T11:04:27.488Z,71.28
2022-08-26T11:07:46.211Z,70.92
2022-08-26T11:10:19.092Z,71.24
2022-08-26T11:12:54.829Z,70.66
2022-08-26T11:15:24.504Z,70.12
2022-08-26T11:17:52.070Z,70.40
2022-08-26T11:20:44.173Z,71.19
2022-08-26T11:23:19.826Z,71.84
2022-08-26T11:25:55.887Z,71.58
2022-08-26T11:28:53.418Z,71.27
2022-08-26T11:31:26.774Z,69.59
2022-08-26T11:34:01.976Z,68.67
2022-08-26T11:36:47.323Z,68.51
2022-08-26T11:39:47.855Z,69.53
2022-08-26T11:42:35.782Z,68.78
2022-08-26T11:45:24.337Z,69.05
2022-08-26T11:47:51.996Z,68.61
2022-08-26T11:50:26.077Z,67.82
2022-08-26T11:53:07.583Z,68.84
2022-08-26T11:55:43.390Z,68.20
2022-08-26T11:58:12.967Z,67.48
2022-08-26T12:00:45.685Z,67.88
2022-08-26T12:03:21.496Z,68.80
2022-08-26T12:05:54.193Z,68.56
2022-08-26T12:08:31.271Z,67.88
2022-08-26T12:11:28.063Z,67.27
2022-08-26T12:14:15.999Z,67.91
2022-08-26T12:16:43.485Z,67.95
2022-08-26T12:19:33.803Z,67.29
2022-08-26T12:22:17.219Z,66.54
2022-08-26T12:24:52.395Z,66.43
2022-08-26T12:27:29.331Z,66.51
2022-08-26T12:30:20.008Z,66.89
2022-08-26T12:32:58.721Z,66.98
2022-08-26T12:35:28.847Z,67.14
2022-08-26T12:37:57.750Z,67.49
2022-08-26T12:40:30.956Z,67.24
2022-08-26T12:43:02.368Z,67.14
2022-08-26T12:45:43.054Z,66.64
2022-08-26T12:48:24.485Z,66.34
2022-08-26T12:50:52.876Z,66.40
2022-08-26T12:53:30.963Z,66.88
2022-08-26T12:56:18.255Z,66.70
2022-08-26T12:59:25.077Z,67.03
2022-08-26T13:01:54.792Z,66.82
2022-08-26T13:04:43.514Z,67.37
2022-08-26T13:07:22.507Z,66.92
2022-08-26T13:09:58.335Z,66.56
2022-08-26T13:12:37.500Z,65.89
2022-08-26T13:15:06.911Z,66.32
2022-08-26T13:17:35.910Z,66.15
2022-08-26T13:20:04.655Z,65.92
2022-08-26T13:22:32.188Z,65.79
2022-08-26T13:24:59.852Z,66.34
2022-08-26T13:27:27.674Z,66.47
2022-08-26T13:29:57.675Z,66.73
2022-08-26T13:32:27.632Z,66.33
2022-08-26T13:34:57.438Z,66.31
2022-08-26T13:37:34.699Z,65.97
2022-08-26T13:40:07.025Z,65.61
2022-08-26T13:42:34.497Z,65.47
2022-08-26T13:45:03.261Z,65.60
2022-08-26T13:47:30.721Z,65.74
2022-08-26T13:49:58.232Z,66.01
2022-08-26T13:52:30.478Z,65.88
2022-08-26T13:55:00.748Z,66.18
2022-08-26T13:57:30.224Z,66.07
2022-08-26T13:59:59.704Z,66.24
2022-08-26T14:02:28.313Z,66.42
2022-08-26T14:04:56.033Z,66.79
2022-08-26T14:07:24.438Z,67.73
2022-08-26T14:09:51.930Z,68.28
2022-08-26T14:12:19.514Z,69.09
2022-08-26T14:14:46.815Z,69.90
2022-08-26T14:17:21.383Z,70.34
2022-08-26T14:19:50.447Z,70.24
2022-08-26T14:22:21.926Z,70.41
2022-08-26T14:24:50.488Z,71.00
2022-08-26T14:27:17.673Z,70.52
2022-08-26T14:29:44.851Z,71.04
2022-08-26T14:32:28.995Z,70.28
2022-08-26T14:34:56.290Z,70.33
2022-08-26T14:37:24.055Z,69.69
2022-08-26T14:39:51.538Z,69.38
2022-08-26T14:42:31.454Z,69.24
2022-08-26T14:45:02.806Z,68.34
2022-08-26T14:47:29.999Z,67.97
2022-08-26T14:49:57.082Z,67.23
2022-08-26T14:52:25.503Z,65.86
2022-08-26T14:54:55.421Z,66.24
2022-08-26T14:57:22.737Z,65.71
2022-08-26T14:59:50.552Z,65.22
2022-08-26T15:02:33.047Z,64.22
2022-08-26T15:05:02.663Z,63.63
2022-08-26T15:07:30.423Z,63.67
2022-08-26T15:09:58.585Z,63.07
2022-08-26T15:12:26.068Z,61.33
2022-08-26T15:14:53.992Z,60.93
2022-08-26T15:17:22.118Z,59.58
2022-08-26T15:19:49.380Z,60.09
2022-08-26T15:22:17.630Z,60.00
2022-08-26T15:24:44.744Z,59.91
2022-08-26T15:27:14.188Z,60.76
2022-08-26T15:29:41.579Z,59.56
2022-08-26T15:32:08.800Z,61.12
2022-08-26T15:34:35.987Z,60.68
2022-08-26T15:37:03.766Z,61.23
2022-08-26T15:39:31.098Z,61.46
2022-08-26T15:41:59.750Z,61.00
2022-08-26T15:44:28.238Z,61.04
2022-08-26T15:46:58.592Z,60.25
2022-08-26T15:49:27.540Z,60.39
2022-08-26T15:51:55.023Z,60.20
2022-08-26T15:54:24.565Z,60.53
2022-08-26T15:56:55.316Z,60.87
2022-08-26T15:59:22.816Z,60.34
2022-08-26T16:01:51.839Z,60.16
2022-08-26T16:04:19.315Z,60.01
2022-08-26T16:06:50.349Z,60.33
2022-08-26T16:09:20.499Z,60.32
2022-08-26T16:11:47.631Z,60.64
2022-08-26T16:14:15.190Z,61.25
2022-08-26T16:16:42.654Z,61.74
2022-08-26T16:19:11.622Z,61.61
2022-08-26T16:21:40.798Z,61.97
2022-08-26T16:24:09.096Z,62.76
2022-08-26T16:26:39.666Z,62.88
2022-08-26T16:29:12.274Z,63.19
2022-08-26T16:31:40.151Z,63.35
2022-08-26T16:34:09.175Z,63.13
2022-08-26T16:36:38.610Z,63.70
2022-08-26T16:39:08.136Z,63.68
2022-08-26T16:41:36.154Z,63.71
2022-08-26T16:44:05.241Z,62.95
2022-08-26T16:46:33.695Z,62.75
2022-08-26T16:49:04.804Z,61.82
2022-08-26T16:51:32.715Z,61.55
2022-08-26T16:54:08.716Z,61.31
2022-08-26T16:56:37.809Z,60.60
2022-08-26T16:59:11.696Z,60.75
2022-08-26T17:01:38.913Z,61.18
2022-08-26T17:04:07.322Z,60.44
2022-08-26T17:06:34.439Z,60.49
2022-08-26T17:09:02.596Z,57.77
2022-08-26T17:11:30.322Z,57.68
2022-08-26T17:13:57.460Z,57.73
2022-08-26T17:16:27.038Z,57.93
2022-08-26T17:18:59.094Z,59.01
2022-08-26T17:21:28.313Z,59.10
2022-08-26T17:23:56.367Z,58.33
2022-08-26T17:26:23.615Z,59.02
2022-08-26T17:28:51.214Z,58.39
2022-08-26T17:31:19.345Z,58.90
2022-08-26T17:33:53.228Z,59.75
2022-08-26T17:36:27.514Z,59.85
2022-08-26T17:38:58.396Z,60.13
2022-08-26T17:41:27.076Z,59.44
2022-08-26T17:43:54.522Z,60.40
2022-08-26T17:46:22.624Z,59.91
2022-08-26T17:48:49.900Z,60.08
2022-08-26T17:51:19.497Z,60.61
2022-08-26T17:53:47.905Z,60.95
2022-08-26T17:56:19.430Z,60.76
2022-08-26T17:58:51.079Z,61.54
2022-08-26T18:01:26.109Z,61.65
2022-08-26T18:03:59.697Z,62.16
2022-08-26T18:06:30.487Z,62.21
2022-08-26T18:08:58.627Z,62.55
2022-08-26T18:11:26.983Z,62.16
2022-08-26T18:13:54.195Z,62.21
2022-08-26T18:16:22.354Z,62.25
2022-08-26T18:18:53.363Z,62.29
2022-08-26T18:21:24.727Z,62.56
2022-08-26T18:23:53.883Z,62.54
2022-08-26T18:26:32.794Z,62.23
2022-08-26T18:29:00.659Z,62.41
2022-08-26T18:31:29.083Z,62.84
2022-08-26T18:34:00.138Z,62.44
2022-08-26T18:36:36.828Z,63.11
2022-08-26T18:39:05.834Z,63.53
2022-08-26T18:41:39.902Z,63.42
2022-08-26T18:44:13.300Z,63.78
2022-08-26T18:46:42.022Z,63.57
2022-08-26T18:49:13.758Z,63.68
2022-08-26T18:51:43.282Z,64.03
2022-08-26T18:54:12.331Z,63.93
2022-08-26T18:56:42.262Z,64.20
2022-08-26T18:59:12.711Z,64.53
2022-08-26T19:01:42.224Z,64.60
2022-08-26T19:04:14.704Z,64.85
2022-08-26T19:06:46.714Z,64.99
2022-08-26T19:09:17.850Z,65.16
2022-08-26T19:11:49.776Z,65.02
2022-08-26T19:14:19.178Z,65.17
2022-08-26T19:16:49.587Z,65.39
2022-08-26T19:19:17.247Z,65.58
2022-08-26T19:21:45.606Z,65.43
2022-08-26T19:24:17.561Z,65.46
2022-08-26T19:26:57.510Z,65.71
2022-08-26T19:29:30.349Z,65.53
2022-08-26T19:31:57.718Z,65.71
2022-08-26T19:34:25.152Z,65.88
2022-08-26T19:36:54.281Z,65.87
2022-08-26T19:39:21.747Z,65.89
2022-08-26T19:41:49.929Z,65.94
2022-08-26T19:44:41.448Z,65.71
2022-08-26T19:47:11.647Z,65.75
2022-08-26T19:49:39.065Z,65.91
2022-08-26T19:52:08.015Z,66.00
2022-08-26T19:54:36.101Z,65.84
2022-08-26T19:57:04.231Z,65.68
2022-08-26T19:59:33.065Z,65.59
2022-08-26T20:02:00.819Z,65.84
2022-08-26T20:04:31.362Z,65.68
2022-08-26T20:07:00.971Z,65.40
2022-08-26T20:09:30.735Z,65.43
2022-08-26T20:11:58.420Z,65.69
2022-08-26T20:14:27.828Z,65.52
2022-08-26T20:16:56.550Z,65.69
2022-08-26T20:19:42.489Z,65.38
2022-08-26T20:22:11.582Z,65.39
2022-08-26T20:24:38.702Z,65.60
2022-08-26T20:27:07.909Z,65.64
2022-08-26T20:29:36.870Z,65.84
2022-08-26T20:32:07.088Z,65.81
2022-08-26T20:34:35.801Z,65.92
2022-08-26T20:37:04.720Z,66.13
2022-08-26T20:39:31.966Z,66.10
2022-08-26T20:41:59.524Z,66.19
2022-08-26T20:44:26.700Z,66.39
2022-08-26T20:46:53.799Z,66.21
2022-08-26T20:49:21.186Z,66.08
2022-08-26T20:51:52.464Z,66.12
2022-08-26T20:54:27.537Z,66.09
2022-08-26T20:56:58.162Z,66.22
2022-08-26T20:59:26.894Z,66.30
2022-08-26T21:01:54.684Z,66.05
2022-08-26T21:04:26.740Z,66.25
2022-08-26T21:06:55.067Z,66.40
2022-08-26T21:09:25.616Z,66.45
2022-08-26T21:11:54.832Z,66.40
2022-08-26T21:14:25.730Z,65.34
2022-08-26T21:16:53.528Z,65.26
2022-08-26T21:19:21.171Z,65.53
2022-08-26T21:21:49.619Z,65.48
2022-08-26T21:24:17.412Z,65.68
2022-08-26T21:26:45.387Z,65.89
2022-08-26T21:29:13.705Z,64.72
2022-08-26T21:31:45.681Z,64.92
2022-08-26T21:34:18.965Z,65.12
2022-08-26T21:36:47.895Z,65.15
2022-08-26T21:39:21.231Z,64.99
2022-08-26T21:41:48.387Z,65.12
2022-08-26T21:44:17.930Z,65.06
2022-08-26T21:46:46.840Z,65.26
2022-08-26T21:49:16.091Z,65.21
2022-08-26T21:51:48.227Z,65.12
2022-08-26T21:54:15.901Z,65.26
2022-08-26T21:56:47.050Z,64.58
2022-08-26T21:59:18.080Z,64.68
2022-08-26T22:01:46.008Z,64.79
2022-08-26T22:04:13.724Z,64.75
2022-08-26T22:06:46.384Z,64.84
2022-08-26T22:09:16.692Z,65.14
2022-08-26T22:11:44.596Z,64.92
2022-08-26T22:14:12.028Z,64.88
2022-08-26T22:16:39.718Z,65.06
2022-08-26T22:19:17.035Z,65.05
2022-08-26T22:21:45.240Z,64.91
2022-08-26T22:24:12.538Z,64.90
2022-08-26T22:26:39.888Z,64.81
2022-08-26T22:29:08.108Z,64.86
2022-08-26T22:31:38.048Z,64.68
2022-08-26T22:34:09.852Z,64.45
2022-08-26T22:36:46.996Z,64.29
2022-08-26T22:39:19.131Z,64.24
2022-08-26T22:41:48.458Z,63.88
2022-08-26T22:44:19.209Z,63.84
2022-08-26T22:46:48.461Z,62.91
2022-08-26T22:49:16.513Z,62.67
2022-08-26T22:51:45.462Z,62.48
2022-08-26T22:54:14.573Z,62.80
2022-08-26T22:56:42.843Z,63.12
2022-08-26T22:59:12.613Z,62.69
2022-08-26T23:01:43.507Z,62.76
2022-08-26T23:04:11.116Z,62.80
2022-08-26T23:06:43.015Z,62.64
2022-08-26T23:09:11.202Z,62.39
2022-08-26T23:11:42.819Z,62.28
2022-08-26T23:14:11.201Z,61.98
2022-08-26T23:16:43.597Z,62.05
2022-08-26T23:19:14.418Z,62.24
2022-08-26T23:21:41.766Z,62.45
2022-08-26T23:24:10.587Z,62.61
2022-08-26T23:26:40.058Z,62.61
2022-08-26T23:29:10.018Z,62.41
2022-08-26T23:31:40.156Z,62.84
2022-08-26T23:34:26.361Z,62.66
2022-08-26T23:36:56.959Z,62.33
2022-08-26T23:39:25.576Z,62.69
2022-08-26T23:41:52.828Z,62.80
2022-08-26T23:44:25.502Z,62.02
2022-08-26T23:46:52.775Z,62.20
2022-08-26T23:49:19.822Z,61.95
2022-08-26T23:52:05.394Z,61.99
2022-08-26T23:54:33.114Z,62.42
2022-08-26T23:57:00.357Z,62.18
2022-08-26T23:59:27.375Z,62.36
